sensor_id;sensor_type;location;lat;lon;timestamp;P1;durP1;ratioP1;P2;durP2;ratioP2
42840;SDS011;28491;46.898;7.660;2024-02-16T00:01:39;7.45;;;3.65;;
42840;SDS011;28491;46.898;7.660;2024-02-16T00:04:05;6.07;;;2.88;;
42840;SDS011;28491;46.898;7.660;2024-02-16T00:06:30;6.13;;;3.60;;
42840;SDS011;28491;46.898;7.660;2024-02-16T00:08:56;4.82;;;2.92;;
42840;SDS011;28491;46.898;7.660;2024-02-16T00:11:21;5.80;;;2.75;;
42840;SDS011;28491;46.898;7.660;2024-02-16T00:13:48;6.35;;;3.53;;
42840;SDS011;28491;46.898;7.660;2024-02-16T00:16:13;6.55;;;3.47;;
42840;SDS011;28491;46.898;7.660;2024-02-16T00:18:39;6.00;;;3.33;;
42840;SDS011;28491;46.898;7.660;2024-02-16T00:21:04;5.40;;;3.00;;
42840;SDS011;28491;46.898;7.660;2024-02-16T00:23:30;8.20;;;3.00;;
42840;SDS011;28491;46.898;7.660;2024-02-16T00:25:56;5.47;;;3.08;;
42840;SDS011;28491;46.898;7.660;2024-02-16T00:28:21;4.35;;;2.85;;
42840;SDS011;28491;46.898;7.660;2024-02-16T00:30:46;8.63;;;3.72;;
42840;SDS011;28491;46.898;7.660;2024-02-16T00:33:14;6.55;;;3.00;;
42840;SDS011;28491;46.898;7.660;2024-02-16T00:35:39;4.40;;;2.67;;
42840;SDS011;28491;46.898;7.660;2024-02-16T00:38:05;4.25;;;2.78;;
42840;SDS011;28491;46.898;7.660;2024-02-16T00:40:31;6.75;;;3.50;;
42840;SDS011;28491;46.898;7.660;2024-02-16T00:42:56;5.03;;;3.33;;
42840;SDS011;28491;46.898;7.660;2024-02-16T00:45:22;5.13;;;3.13;;
42840;SDS011;28491;46.898;7.660;2024-02-16T00:47:47;4.07;;;2.80;;
42840;SDS011;28491;46.898;7.660;2024-02-16T00:50:13;4.43;;;2.75;;
42840;SDS011;28491;46.898;7.660;2024-02-16T00:52:40;3.65;;;2.38;;
42840;SDS011;28491;46.898;7.660;2024-02-16T00:55:06;7.40;;;3.03;;
42840;SDS011;28491;46.898;7.660;2024-02-16T00:57:31;5.35;;;3.00;;
42840;SDS011;28491;46.898;7.660;2024-02-16T00:59:59;6.20;;;3.20;;
42840;SDS011;28491;46.898;7.660;2024-02-16T01:02:24;4.03;;;3.00;;
42840;SDS011;28491;46.898;7.660;2024-02-16T01:04:50;5.88;;;3.35;;
42840;SDS011;28491;46.898;7.660;2024-02-16T01:07:16;4.15;;;2.45;;
42840;SDS011;28491;46.898;7.660;2024-02-16T01:09:42;6.30;;;3.60;;
42840;SDS011;28491;46.898;7.660;2024-02-16T01:12:08;4.95;;;2.63;;
42840;SDS011;28491;46.898;7.660;2024-02-16T01:14:33;6.25;;;2.72;;
42840;SDS011;28491;46.898;7.660;2024-02-16T01:16:59;5.18;;;2.90;;
42840;SDS011;28491;46.898;7.660;2024-02-16T01:19:24;4.03;;;2.55;;
42840;SDS011;28491;46.898;7.660;2024-02-16T01:21:50;5.05;;;3.08;;
42840;SDS011;28491;46.898;7.660;2024-02-16T01:24:18;5.35;;;2.85;;
42840;SDS011;28491;46.898;7.660;2024-02-16T01:26:45;5.13;;;3.20;;
42840;SDS011;28491;46.898;7.660;2024-02-16T01:29:11;15.20;;;3.60;;
42840;SDS011;28491;46.898;7.660;2024-02-16T01:31:37;6.80;;;3.53;;
42840;SDS011;28491;46.898;7.660;2024-02-16T01:34:02;7.57;;;4.03;;
42840;SDS011;28491;46.898;7.660;2024-02-16T01:36:28;8.35;;;3.78;;
42840;SDS011;28491;46.898;7.660;2024-02-16T01:38:53;6.25;;;3.20;;
42840;SDS011;28491;46.898;7.660;2024-02-16T01:41:19;5.10;;;2.85;;
42840;SDS011;28491;46.898;7.660;2024-02-16T01:43:44;6.00;;;3.72;;
42840;SDS011;28491;46.898;7.660;2024-02-16T01:46:10;6.15;;;3.13;;
42840;SDS011;28491;46.898;7.660;2024-02-16T01:48:36;5.47;;;3.35;;
42840;SDS011;28491;46.898;7.660;2024-02-16T01:51:04;7.18;;;3.53;;
42840;SDS011;28491;46.898;7.660;2024-02-16T01:53:31;5.68;;;3.22;;
42840;SDS011;28491;46.898;7.660;2024-02-16T01:55:58;5.50;;;2.67;;
42840;SDS011;28491;46.898;7.660;2024-02-16T01:58:24;4.95;;;3.05;;
42840;SDS011;28491;46.898;7.660;2024-02-16T02:00:49;7.80;;;3.13;;
42840;SDS011;28491;46.898;7.660;2024-02-16T02:03:15;7.88;;;3.08;;
42840;SDS011;28491;46.898;7.660;2024-02-16T02:05:43;5.93;;;3.28;;
42840;SDS011;28491;46.898;7.660;2024-02-16T02:08:10;4.80;;;2.95;;
42840;SDS011;28491;46.898;7.660;2024-02-16T02:10:37;6.78;;;3.33;;
42840;SDS011;28491;46.898;7.660;2024-02-16T02:13:02;3.33;;;2.17;;
42840;SDS011;28491;46.898;7.660;2024-02-16T02:15:28;5.78;;;3.70;;
42840;SDS011;28491;46.898;7.660;2024-02-16T02:17:53;7.30;;;3.28;;
42840;SDS011;28491;46.898;7.660;2024-02-16T02:20:19;6.35;;;3.20;;
42840;SDS011;28491;46.898;7.660;2024-02-16T02:22:44;9.77;;;3.58;;
42840;SDS011;28491;46.898;7.660;2024-02-16T02:25:10;3.78;;;2.30;;
42840;SDS011;28491;46.898;7.660;2024-02-16T02:27:36;7.47;;;4.00;;
42840;SDS011;28491;46.898;7.660;2024-02-16T02:30:02;5.78;;;2.53;;
42840;SDS011;28491;46.898;7.660;2024-02-16T02:32:28;4.30;;;2.70;;
42840;SDS011;28491;46.898;7.660;2024-02-16T02:34:54;3.83;;;2.50;;
42840;SDS011;28491;46.898;7.660;2024-02-16T02:37:20;4.78;;;2.63;;
42840;SDS011;28491;46.898;7.660;2024-02-16T02:39:45;4.72;;;2.45;;
42840;SDS011;28491;46.898;7.660;2024-02-16T02:42:11;6.30;;;2.63;;
42840;SDS011;28491;46.898;7.660;2024-02-16T02:44:36;10.05;;;4.05;;
42840;SDS011;28491;46.898;7.660;2024-02-16T02:47:02;5.00;;;2.65;;
42840;SDS011;28491;46.898;7.660;2024-02-16T02:49:27;4.63;;;2.47;;
42840;SDS011;28491;46.898;7.660;2024-02-16T02:51:53;4.60;;;2.60;;
42840;SDS011;28491;46.898;7.660;2024-02-16T02:54:18;4.35;;;2.63;;
42840;SDS011;28491;46.898;7.660;2024-02-16T02:56:44;9.32;;;3.15;;
42840;SDS011;28491;46.898;7.660;2024-02-16T02:59:10;5.82;;;3.13;;
42840;SDS011;28491;46.898;7.660;2024-02-16T03:01:35;5.25;;;2.90;;
42840;SDS011;28491;46.898;7.660;2024-02-16T03:04:01;4.22;;;2.80;;
42840;SDS011;28491;46.898;7.660;2024-02-16T03:06:27;4.20;;;2.65;;
42840;SDS011;28491;46.898;7.660;2024-02-16T03:08:53;4.80;;;2.50;;
42840;SDS011;28491;46.898;7.660;2024-02-16T03:11:19;5.65;;;3.15;;
42840;SDS011;28491;46.898;7.660;2024-02-16T03:13:45;8.45;;;3.13;;
42840;SDS011;28491;46.898;7.660;2024-02-16T03:16:11;4.45;;;2.75;;
42840;SDS011;28491;46.898;7.660;2024-02-16T03:18:36;4.32;;;2.30;;
42840;SDS011;28491;46.898;7.660;2024-02-16T03:21:02;3.22;;;2.15;;
42840;SDS011;28491;46.898;7.660;2024-02-16T03:23:28;5.85;;;2.72;;
42840;SDS011;28491;46.898;7.660;2024-02-16T03:25:53;4.10;;;2.75;;
42840;SDS011;28491;46.898;7.660;2024-02-16T03:28:19;8.27;;;3.40;;
42840;SDS011;28491;46.898;7.660;2024-02-16T03:30:45;12.70;;;2.95;;
42840;SDS011;28491;46.898;7.660;2024-02-16T03:33:11;3.95;;;2.78;;
42840;SDS011;28491;46.898;7.660;2024-02-16T03:35:38;4.25;;;2.58;;
42840;SDS011;28491;46.898;7.660;2024-02-16T03:38:03;7.10;;;3.58;;
42840;SDS011;28491;46.898;7.660;2024-02-16T03:40:30;6.05;;;2.58;;
42840;SDS011;28491;46.898;7.660;2024-02-16T03:42:55;5.60;;;2.88;;
42840;SDS011;28491;46.898;7.660;2024-02-16T03:45:21;3.80;;;2.58;;
42840;SDS011;28491;46.898;7.660;2024-02-16T03:47:48;5.93;;;2.75;;
42840;SDS011;28491;46.898;7.660;2024-02-16T03:50:14;6.20;;;3.15;;
42840;SDS011;28491;46.898;7.660;2024-02-16T03:52:40;5.90;;;2.13;;
42840;SDS011;28491;46.898;7.660;2024-02-16T03:55:05;3.58;;;2.05;;
42840;SDS011;28491;46.898;7.660;2024-02-16T03:57:32;6.20;;;2.38;;
42840;SDS011;28491;46.898;7.660;2024-02-16T03:59:57;7.32;;;2.63;;
42840;SDS011;28491;46.898;7.660;2024-02-16T04:02:24;5.93;;;3.17;;
42840;SDS011;28491;46.898;7.660;2024-02-16T04:04:49;5.45;;;3.40;;
42840;SDS011;28491;46.898;7.660;2024-02-16T04:07:15;5.45;;;2.55;;
42840;SDS011;28491;46.898;7.660;2024-02-16T04:09:41;4.10;;;3.00;;
42840;SDS011;28491;46.898;7.660;2024-02-16T04:12:07;6.22;;;2.78;;
42840;SDS011;28491;46.898;7.660;2024-02-16T04:14:32;8.48;;;2.88;;
42840;SDS011;28491;46.898;7.660;2024-02-16T04:16:58;3.65;;;2.10;;
42840;SDS011;28491;46.898;7.660;2024-02-16T04:19:27;4.60;;;2.35;;
42840;SDS011;28491;46.898;7.660;2024-02-16T04:24:19;5.93;;;2.38;;
42840;SDS011;28491;46.898;7.660;2024-02-16T04:26:45;3.85;;;2.60;;
42840;SDS011;28491;46.898;7.660;2024-02-16T04:29:10;4.20;;;2.00;;
42840;SDS011;28491;46.898;7.660;2024-02-16T04:31:40;4.10;;;2.63;;
42840;SDS011;28491;46.898;7.660;2024-02-16T04:34:07;4.88;;;2.35;;
42840;SDS011;28491;46.898;7.660;2024-02-16T04:36:35;6.55;;;2.38;;
42840;SDS011;28491;46.898;7.660;2024-02-16T04:39:01;4.25;;;2.38;;
42840;SDS011;28491;46.898;7.660;2024-02-16T04:41:27;7.22;;;2.67;;
42840;SDS011;28491;46.898;7.660;2024-02-16T04:43:52;3.97;;;2.45;;
42840;SDS011;28491;46.898;7.660;2024-02-16T04:46:21;3.83;;;2.27;;
42840;SDS011;28491;46.898;7.660;2024-02-16T04:48:46;4.13;;;2.53;;
42840;SDS011;28491;46.898;7.660;2024-02-16T04:51:12;4.55;;;2.50;;
42840;SDS011;28491;46.898;7.660;2024-02-16T04:53:38;2.92;;;2.13;;
42840;SDS011;28491;46.898;7.660;2024-02-16T04:56:04;5.05;;;3.50;;
42840;SDS011;28491;46.898;7.660;2024-02-16T04:58:30;3.75;;;2.00;;
42840;SDS011;28491;46.898;7.660;2024-02-16T05:00:55;5.10;;;2.95;;
42840;SDS011;28491;46.898;7.660;2024-02-16T05:03:21;5.30;;;2.50;;
42840;SDS011;28491;46.898;7.660;2024-02-16T05:05:46;4.30;;;2.45;;
42840;SDS011;28491;46.898;7.660;2024-02-16T05:08:12;6.13;;;2.97;;
42840;SDS011;28491;46.898;7.660;2024-02-16T05:10:38;6.50;;;3.90;;
42840;SDS011;28491;46.898;7.660;2024-02-16T05:13:03;9.40;;;3.75;;
42840;SDS011;28491;46.898;7.660;2024-02-16T05:15:29;9.20;;;4.10;;
42840;SDS011;28491;46.898;7.660;2024-02-16T05:17:55;6.93;;;3.58;;
42840;SDS011;28491;46.898;7.660;2024-02-16T05:20:21;5.45;;;3.38;;
42840;SDS011;28491;46.898;7.660;2024-02-16T05:22:46;7.18;;;2.85;;
42840;SDS011;28491;46.898;7.660;2024-02-16T05:25:14;9.50;;;3.75;;
42840;SDS011;28491;46.898;7.660;2024-02-16T05:27:40;6.90;;;3.97;;
42840;SDS011;28491;46.898;7.660;2024-02-16T05:30:06;4.68;;;2.92;;
42840;SDS011;28491;46.898;7.660;2024-02-16T05:32:35;5.90;;;3.80;;
42840;SDS011;28491;46.898;7.660;2024-02-16T05:35:02;5.72;;;3.05;;
42840;SDS011;28491;46.898;7.660;2024-02-16T05:37:36;4.25;;;2.85;;
42840;SDS011;28491;46.898;7.660;2024-02-16T05:40:18;7.15;;;3.45;;
42840;SDS011;28491;46.898;7.660;2024-02-16T05:42:46;7.07;;;3.47;;
42840;SDS011;28491;46.898;7.660;2024-02-16T05:45:12;4.05;;;2.65;;
42840;SDS011;28491;46.898;7.660;2024-02-16T05:47:41;5.82;;;3.10;;
42840;SDS011;28491;46.898;7.660;2024-02-16T05:50:08;5.43;;;2.90;;
42840;SDS011;28491;46.898;7.660;2024-02-16T05:52:34;5.03;;;2.95;;
42840;SDS011;28491;46.898;7.660;2024-02-16T05:55:00;4.05;;;2.42;;
42840;SDS011;28491;46.898;7.660;2024-02-16T05:57:25;4.43;;;2.33;;
42840;SDS011;28491;46.898;7.660;2024-02-16T05:59:51;4.38;;;2.20;;
42840;SDS011;28491;46.898;7.660;2024-02-16T06:02:17;9.13;;;2.50;;
42840;SDS011;28491;46.898;7.660;2024-02-16T06:04:43;6.40;;;2.65;;
42840;SDS011;28491;46.898;7.660;2024-02-16T06:07:08;5.15;;;2.42;;
42840;SDS011;28491;46.898;7.660;2024-02-16T06:09:34;5.63;;;2.17;;
42840;SDS011;28491;46.898;7.660;2024-02-16T06:12:03;3.83;;;2.72;;
42840;SDS011;28491;46.898;7.660;2024-02-16T06:14:30;4.38;;;2.72;;
42840;SDS011;28491;46.898;7.660;2024-02-16T06:16:56;4.57;;;2.92;;
42840;SDS011;28491;46.898;7.660;2024-02-16T06:19:22;5.25;;;2.58;;
42840;SDS011;28491;46.898;7.660;2024-02-16T06:21:48;5.13;;;2.60;;
42840;SDS011;28491;46.898;7.660;2024-02-16T06:24:13;6.20;;;3.15;;
42840;SDS011;28491;46.898;7.660;2024-02-16T06:26:39;4.25;;;2.92;;
42840;SDS011;28491;46.898;7.660;2024-02-16T06:29:04;5.93;;;2.70;;
42840;SDS011;28491;46.898;7.660;2024-02-16T06:31:30;7.95;;;3.50;;
42840;SDS011;28491;46.898;7.660;2024-02-16T06:33:55;3.92;;;2.40;;
42840;SDS011;28491;46.898;7.660;2024-02-16T06:36:22;4.47;;;2.40;;
42840;SDS011;28491;46.898;7.660;2024-02-16T06:38:47;5.07;;;3.75;;
42840;SDS011;28491;46.898;7.660;2024-02-16T06:41:13;5.88;;;2.85;;
42840;SDS011;28491;46.898;7.660;2024-02-16T06:43:38;4.95;;;2.55;;
42840;SDS011;28491;46.898;7.660;2024-02-16T06:46:04;4.78;;;2.67;;
42840;SDS011;28491;46.898;7.660;2024-02-16T06:48:30;4.35;;;2.58;;
42840;SDS011;28491;46.898;7.660;2024-02-16T06:50:55;6.20;;;2.53;;
42840;SDS011;28491;46.898;7.660;2024-02-16T06:53:21;6.00;;;2.53;;
42840;SDS011;28491;46.898;7.660;2024-02-16T06:55:46;5.35;;;2.70;;
42840;SDS011;28491;46.898;7.660;2024-02-16T06:58:12;4.90;;;2.70;;
42840;SDS011;28491;46.898;7.660;2024-02-16T07:00:38;8.60;;;2.80;;
42840;SDS011;28491;46.898;7.660;2024-02-16T07:03:07;4.82;;;2.90;;
42840;SDS011;28491;46.898;7.660;2024-02-16T07:05:32;3.72;;;2.88;;
42840;SDS011;28491;46.898;7.660;2024-02-16T07:07:58;5.10;;;3.00;;
42840;SDS011;28491;46.898;7.660;2024-02-16T07:10:23;5.13;;;3.08;;
42840;SDS011;28491;46.898;7.660;2024-02-16T07:12:49;7.05;;;3.40;;
42840;SDS011;28491;46.898;7.660;2024-02-16T07:15:14;4.68;;;2.83;;
42840;SDS011;28491;46.898;7.660;2024-02-16T07:17:40;6.25;;;3.63;;
42840;SDS011;28491;46.898;7.660;2024-02-16T07:20:06;8.32;;;4.85;;
42840;SDS011;28491;46.898;7.660;2024-02-16T07:22:32;13.13;;;2.75;;
42840;SDS011;28491;46.898;7.660;2024-02-16T07:24:58;5.53;;;3.17;;
42840;SDS011;28491;46.898;7.660;2024-02-16T07:27:28;5.15;;;2.92;;
42840;SDS011;28491;46.898;7.660;2024-02-16T07:29:54;3.92;;;3.00;;
42840;SDS011;28491;46.898;7.660;2024-02-16T07:32:19;3.30;;;2.10;;
42840;SDS011;28491;46.898;7.660;2024-02-16T07:34:45;3.63;;;2.03;;
42840;SDS011;28491;46.898;7.660;2024-02-16T07:37:12;4.97;;;2.10;;
42840;SDS011;28491;46.898;7.660;2024-02-16T07:39:38;4.75;;;2.20;;
42840;SDS011;28491;46.898;7.660;2024-02-16T07:42:05;5.00;;;2.67;;
42840;SDS011;28491;46.898;7.660;2024-02-16T07:44:31;4.10;;;2.15;;
42840;SDS011;28491;46.898;7.660;2024-02-16T07:46:57;5.00;;;3.00;;
42840;SDS011;28491;46.898;7.660;2024-02-16T07:49:22;5.70;;;3.20;;
42840;SDS011;28491;46.898;7.660;2024-02-16T07:51:48;5.07;;;2.70;;
42840;SDS011;28491;46.898;7.660;2024-02-16T07:54:13;6.32;;;3.30;;
42840;SDS011;28491;46.898;7.660;2024-02-16T07:56:39;7.47;;;2.92;;
42840;SDS011;28491;46.898;7.660;2024-02-16T07:59:04;6.40;;;2.88;;
42840;SDS011;28491;46.898;7.660;2024-02-16T08:01:30;4.28;;;2.53;;
42840;SDS011;28491;46.898;7.660;2024-02-16T08:03:55;7.20;;;2.83;;
42840;SDS011;28491;46.898;7.660;2024-02-16T08:06:24;2.88;;;2.30;;
42840;SDS011;28491;46.898;7.660;2024-02-16T08:08:50;4.78;;;2.75;;
42840;SDS011;28491;46.898;7.660;2024-02-16T08:11:16;6.38;;;2.40;;
42840;SDS011;28491;46.898;7.660;2024-02-16T08:13:41;4.28;;;2.45;;
42840;SDS011;28491;46.898;7.660;2024-02-16T08:16:07;4.05;;;2.75;;
42840;SDS011;28491;46.898;7.660;2024-02-16T08:18:33;5.25;;;2.35;;
42840;SDS011;28491;46.898;7.660;2024-02-16T08:20:59;4.22;;;2.70;;
42840;SDS011;28491;46.898;7.660;2024-02-16T08:23:25;5.55;;;2.95;;
42840;SDS011;28491;46.898;7.660;2024-02-16T08:25:50;5.60;;;3.03;;
42840;SDS011;28491;46.898;7.660;2024-02-16T08:28:17;7.68;;;3.25;;
42840;SDS011;28491;46.898;7.660;2024-02-16T08:30:42;4.85;;;3.08;;
42840;SDS011;28491;46.898;7.660;2024-02-16T08:33:09;6.25;;;3.40;;
42840;SDS011;28491;46.898;7.660;2024-02-16T08:35:35;8.13;;;4.15;;
42840;SDS011;28491;46.898;7.660;2024-02-16T08:38:00;8.48;;;4.13;;
42840;SDS011;28491;46.898;7.660;2024-02-16T08:40:26;7.95;;;3.83;;
42840;SDS011;28491;46.898;7.660;2024-02-16T08:42:52;4.88;;;2.65;;
42840;SDS011;28491;46.898;7.660;2024-02-16T08:45:17;6.07;;;2.83;;
42840;SDS011;28491;46.898;7.660;2024-02-16T08:47:43;5.35;;;2.72;;
42840;SDS011;28491;46.898;7.660;2024-02-16T08:50:09;4.50;;;2.22;;
42840;SDS011;28491;46.898;7.660;2024-02-16T08:52:36;5.72;;;2.72;;
42840;SDS011;28491;46.898;7.660;2024-02-16T08:55:01;5.70;;;2.63;;
42840;SDS011;28491;46.898;7.660;2024-02-16T08:57:27;4.50;;;2.30;;
42840;SDS011;28491;46.898;7.660;2024-02-16T08:59:52;4.55;;;2.58;;
42840;SDS011;28491;46.898;7.660;2024-02-16T09:02:18;5.82;;;2.90;;
42840;SDS011;28491;46.898;7.660;2024-02-16T09:04:45;4.05;;;2.70;;
42840;SDS011;28491;46.898;7.660;2024-02-16T09:07:11;3.33;;;2.15;;
42840;SDS011;28491;46.898;7.660;2024-02-16T09:09:36;3.95;;;2.13;;
42840;SDS011;28491;46.898;7.660;2024-02-16T09:12:02;5.40;;;2.40;;
42840;SDS011;28491;46.898;7.660;2024-02-16T09:14:27;5.63;;;3.17;;
42840;SDS011;28491;46.898;7.660;2024-02-16T09:16:53;7.65;;;3.95;;
42840;SDS011;28491;46.898;7.660;2024-02-16T09:19:18;7.15;;;3.60;;
42840;SDS011;28491;46.898;7.660;2024-02-16T09:21:48;6.43;;;3.00;;
42840;SDS011;28491;46.898;7.660;2024-02-16T09:24:14;8.00;;;3.25;;
42840;SDS011;28491;46.898;7.660;2024-02-16T09:26:43;4.07;;;2.20;;
42840;SDS011;28491;46.898;7.660;2024-02-16T09:29:11;4.18;;;2.30;;
42840;SDS011;28491;46.898;7.660;2024-02-16T09:31:40;6.45;;;3.10;;
42840;SDS011;28491;46.898;7.660;2024-02-16T09:34:06;5.88;;;2.92;;
42840;SDS011;28491;46.898;7.660;2024-02-16T09:36:32;5.68;;;2.50;;
42840;SDS011;28491;46.898;7.660;2024-02-16T09:38:57;3.75;;;1.95;;
42840;SDS011;28491;46.898;7.660;2024-02-16T09:41:23;3.95;;;2.22;;
42840;SDS011;28491;46.898;7.660;2024-02-16T09:43:49;5.25;;;2.30;;
42840;SDS011;28491;46.898;7.660;2024-02-16T09:46:17;5.47;;;2.15;;
42840;SDS011;28491;46.898;7.660;2024-02-16T09:48:46;3.97;;;2.40;;
42840;SDS011;28491;46.898;7.660;2024-02-16T09:51:16;3.53;;;2.10;;
42840;SDS011;28491;46.898;7.660;2024-02-16T09:53:42;3.53;;;2.25;;
42840;SDS011;28491;46.898;7.660;2024-02-16T09:56:07;5.32;;;2.25;;
42840;SDS011;28491;46.898;7.660;2024-02-16T09:58:35;4.07;;;2.23;;
42840;SDS011;28491;46.898;7.660;2024-02-16T10:01:01;4.20;;;2.22;;
42840;SDS011;28491;46.898;7.660;2024-02-16T10:03:28;3.88;;;2.30;;
42840;SDS011;28491;46.898;7.660;2024-02-16T10:06:04;4.75;;;2.90;;
42840;SDS011;28491;46.898;7.660;2024-02-16T10:08:31;3.85;;;2.40;;
42840;SDS011;28491;46.898;7.660;2024-02-16T10:11:04;5.10;;;2.97;;
42840;SDS011;28491;46.898;7.660;2024-02-16T10:13:32;5.40;;;3.35;;
42840;SDS011;28491;46.898;7.660;2024-02-16T10:16:08;5.63;;;2.58;;
42840;SDS011;28491;46.898;7.660;2024-02-16T10:18:35;3.25;;;1.95;;
42840;SDS011;28491;46.898;7.660;2024-02-16T10:21:01;6.82;;;2.33;;
42840;SDS011;28491;46.898;7.660;2024-02-16T10:23:27;2.50;;;1.85;;
42840;SDS011;28491;46.898;7.660;2024-02-16T10:25:53;3.45;;;1.35;;
42840;SDS011;28491;46.898;7.660;2024-02-16T10:28:19;5.50;;;2.20;;
42840;SDS011;28491;46.898;7.660;2024-02-16T10:30:52;4.90;;;2.08;;
42840;SDS011;28491;46.898;7.660;2024-02-16T10:33:22;6.28;;;2.05;;
42840;SDS011;28491;46.898;7.660;2024-02-16T10:35:49;5.93;;;1.77;;
42840;SDS011;28491;46.898;7.660;2024-02-16T10:38:16;3.17;;;1.73;;
42840;SDS011;28491;46.898;7.660;2024-02-16T10:40:43;2.75;;;1.83;;
42840;SDS011;28491;46.898;7.660;2024-02-16T10:43:12;8.43;;;2.00;;
42840;SDS011;28491;46.898;7.660;2024-02-16T10:45:38;2.90;;;1.70;;
42840;SDS011;28491;46.898;7.660;2024-02-16T10:48:05;4.68;;;1.73;;
42840;SDS011;28491;46.898;7.660;2024-02-16T10:50:35;3.08;;;1.10;;
42840;SDS011;28491;46.898;7.660;2024-02-16T10:53:47;2.58;;;1.50;;
42840;SDS011;28491;46.898;7.660;2024-02-16T10:55:49;3.72;;;1.45;;
42840;SDS011;28491;46.898;7.660;2024-02-16T10:58:16;2.80;;;1.35;;
42840;SDS011;28491;46.898;7.660;2024-02-16T11:03:22;2.92;;;1.45;;
42840;SDS011;28491;46.898;7.660;2024-02-16T11:05:49;3.65;;;1.73;;
42840;SDS011;28491;46.898;7.660;2024-02-16T11:08:16;3.08;;;1.50;;
42840;SDS011;28491;46.898;7.660;2024-02-16T11:10:58;6.60;;;2.03;;
42840;SDS011;28491;46.898;7.660;2024-02-16T11:13:25;4.95;;;1.98;;
42840;SDS011;28491;46.898;7.660;2024-02-16T11:15:59;4.78;;;1.63;;
42840;SDS011;28491;46.898;7.660;2024-02-16T11:18:32;3.05;;;1.60;;
42840;SDS011;28491;46.898;7.660;2024-02-16T11:21:02;3.28;;;1.35;;
42840;SDS011;28491;46.898;7.660;2024-02-16T11:23:31;3.72;;;1.80;;
42840;SDS011;28491;46.898;7.660;2024-02-16T11:26:00;2.67;;;1.70;;
42840;SDS011;28491;46.898;7.660;2024-02-16T11:28:27;2.85;;;1.55;;
42840;SDS011;28491;46.898;7.660;2024-02-16T11:30:55;3.63;;;2.23;;
42840;SDS011;28491;46.898;7.660;2024-02-16T11:33:21;4.93;;;1.85;;
42840;SDS011;28491;46.898;7.660;2024-02-16T11:35:56;3.72;;;1.83;;
42840;SDS011;28491;46.898;7.660;2024-02-16T11:38:23;4.10;;;1.85;;
42840;SDS011;28491;46.898;7.660;2024-02-16T11:40:59;2.67;;;1.70;;
42840;SDS011;28491;46.898;7.660;2024-02-16T11:43:29;4.82;;;2.10;;
42840;SDS011;28491;46.898;7.660;2024-02-16T11:45:57;5.53;;;1.83;;
42840;SDS011;28491;46.898;7.660;2024-02-16T11:48:23;3.78;;;1.80;;
42840;SDS011;28491;46.898;7.660;2024-02-16T11:51:00;2.40;;;1.48;;
42840;SDS011;28491;46.898;7.660;2024-02-16T11:53:27;3.55;;;1.52;;
42840;SDS011;28491;46.898;7.660;2024-02-16T11:55:53;5.65;;;1.75;;
42840;SDS011;28491;46.898;7.660;2024-02-16T11:58:19;2.53;;;1.48;;
42840;SDS011;28491;46.898;7.660;2024-02-16T12:00:46;3.42;;;1.65;;
42840;SDS011;28491;46.898;7.660;2024-02-16T12:03:18;4.30;;;1.70;;
42840;SDS011;28491;46.898;7.660;2024-02-16T12:05:51;3.63;;;1.67;;
42840;SDS011;28491;46.898;7.660;2024-02-16T12:08:17;3.80;;;2.90;;
42840;SDS011;28491;46.898;7.660;2024-02-16T12:10:44;5.15;;;1.83;;
42840;SDS011;28491;46.898;7.660;2024-02-16T12:13:10;7.35;;;2.42;;
42840;SDS011;28491;46.898;7.660;2024-02-16T12:15:37;4.45;;;1.95;;
42840;SDS011;28491;46.898;7.660;2024-02-16T12:18:03;3.25;;;2.08;;
42840;SDS011;28491;46.898;7.660;2024-02-16T12:20:29;3.28;;;1.65;;
42840;SDS011;28491;46.898;7.660;2024-02-16T12:22:58;4.65;;;2.10;;
42840;SDS011;28491;46.898;7.660;2024-02-16T12:25:25;3.75;;;2.20;;
42840;SDS011;28491;46.898;7.660;2024-02-16T12:27:51;6.47;;;1.90;;
42840;SDS011;28491;46.898;7.660;2024-02-16T12:30:17;5.63;;;1.80;;
42840;SDS011;28491;46.898;7.660;2024-02-16T12:32:43;9.13;;;2.05;;
42840;SDS011;28491;46.898;7.660;2024-02-16T12:35:08;6.78;;;2.13;;
42840;SDS011;28491;46.898;7.660;2024-02-16T12:37:34;7.40;;;2.45;;
42840;SDS011;28491;46.898;7.660;2024-02-16T12:40:00;3.95;;;2.05;;
42840;SDS011;28491;46.898;7.660;2024-02-16T12:42:26;3.80;;;1.73;;
42840;SDS011;28491;46.898;7.660;2024-02-16T12:44:52;3.13;;;1.60;;
42840;SDS011;28491;46.898;7.660;2024-02-16T12:47:17;3.03;;;1.95;;
42840;SDS011;28491;46.898;7.660;2024-02-16T12:49:43;3.70;;;1.65;;
42840;SDS011;28491;46.898;7.660;2024-02-16T12:52:08;6.32;;;1.80;;
42840;SDS011;28491;46.898;7.660;2024-02-16T12:54:34;2.63;;;1.80;;
42840;SDS011;28491;46.898;7.660;2024-02-16T12:57:00;6.65;;;1.80;;
42840;SDS011;28491;46.898;7.660;2024-02-16T12:59:25;5.53;;;1.90;;
42840;SDS011;28491;46.898;7.660;2024-02-16T13:01:51;3.60;;;1.50;;
42840;SDS011;28491;46.898;7.660;2024-02-16T13:04:17;6.63;;;1.85;;
42840;SDS011;28491;46.898;7.660;2024-02-16T13:09:12;5.50;;;1.80;;
42840;SDS011;28491;46.898;7.660;2024-02-16T13:11:37;4.80;;;1.83;;
42840;SDS011;28491;46.898;7.660;2024-02-16T13:14:05;2.47;;;1.45;;
42840;SDS011;28491;46.898;7.660;2024-02-16T13:16:31;8.50;;;1.58;;
42840;SDS011;28491;46.898;7.660;2024-02-16T13:18:57;4.43;;;2.47;;
42840;SDS011;28491;46.898;7.660;2024-02-16T13:21:22;6.32;;;1.80;;
42840;SDS011;28491;46.898;7.660;2024-02-16T13:23:48;4.07;;;1.80;;
42840;SDS011;28491;46.898;7.660;2024-02-16T13:26:14;3.63;;;1.65;;
42840;SDS011;28491;46.898;7.660;2024-02-16T13:28:39;5.30;;;1.85;;
42840;SDS011;28491;46.898;7.660;2024-02-16T13:31:05;8.77;;;2.38;;
42840;SDS011;28491;46.898;7.660;2024-02-16T13:33:31;3.30;;;1.77;;
42840;SDS011;28491;46.898;7.660;2024-02-16T13:35:56;4.53;;;2.25;;
42840;SDS011;28491;46.898;7.660;2024-02-16T13:38:22;10.35;;;2.85;;
42840;SDS011;28491;46.898;7.660;2024-02-16T13:40:47;6.65;;;1.88;;
42840;SDS011;28491;46.898;7.660;2024-02-16T13:43:14;2.95;;;1.75;;
42840;SDS011;28491;46.898;7.660;2024-02-16T13:45:49;5.22;;;1.98;;
42840;SDS011;28491;46.898;7.660;2024-02-16T13:48:16;4.65;;;2.03;;
42840;SDS011;28491;46.898;7.660;2024-02-16T13:50:46;5.80;;;2.40;;
42840;SDS011;28491;46.898;7.660;2024-02-16T13:53:13;5.03;;;2.00;;
42840;SDS011;28491;46.898;7.660;2024-02-16T13:55:39;3.28;;;1.65;;
42840;SDS011;28491;46.898;7.660;2024-02-16T13:58:05;3.67;;;1.90;;
42840;SDS011;28491;46.898;7.660;2024-02-16T14:00:31;4.35;;;2.33;;
42840;SDS011;28491;46.898;7.660;2024-02-16T14:02:57;3.67;;;1.60;;
42840;SDS011;28491;46.898;7.660;2024-02-16T14:05:22;3.15;;;1.67;;
42840;SDS011;28491;46.898;7.660;2024-02-16T14:07:50;4.93;;;2.20;;
42840;SDS011;28491;46.898;7.660;2024-02-16T14:10:16;5.70;;;2.13;;
42840;SDS011;28491;46.898;7.660;2024-02-16T14:12:41;7.05;;;2.13;;
42840;SDS011;28491;46.898;7.660;2024-02-16T14:15:09;3.17;;;1.60;;
42840;SDS011;28491;46.898;7.660;2024-02-16T14:17:40;4.03;;;1.75;;
42840;SDS011;28491;46.898;7.660;2024-02-16T14:20:09;4.25;;;1.90;;
42840;SDS011;28491;46.898;7.660;2024-02-16T14:22:35;9.68;;;2.40;;
42840;SDS011;28491;46.898;7.660;2024-02-16T14:25:00;3.97;;;2.10;;
42840;SDS011;28491;46.898;7.660;2024-02-16T14:27:26;3.70;;;1.60;;
42840;SDS011;28491;46.898;7.660;2024-02-16T14:29:51;4.57;;;1.70;;
42840;SDS011;28491;46.898;7.660;2024-02-16T14:32:17;3.90;;;1.63;;
42840;SDS011;28491;46.898;7.660;2024-02-16T14:34:42;4.60;;;1.98;;
42840;SDS011;28491;46.898;7.660;2024-02-16T14:37:09;4.53;;;1.65;;
42840;SDS011;28491;46.898;7.660;2024-02-16T14:39:35;4.25;;;2.50;;
42840;SDS011;28491;46.898;7.660;2024-02-16T14:42:01;9.02;;;2.63;;
42840;SDS011;28491;46.898;7.660;2024-02-16T14:44:26;5.32;;;1.77;;
42840;SDS011;28491;46.898;7.660;2024-02-16T14:46:52;5.50;;;1.83;;
42840;SDS011;28491;46.898;7.660;2024-02-16T14:49:17;4.03;;;1.65;;
42840;SDS011;28491;46.898;7.660;2024-02-16T14:51:49;7.05;;;2.20;;